Weather at Kuching International Airport

Public forecast

Using degrees Celsius for public forecast. Weather courtesy of forecast.io.

Current aviation weather report (METAR) for Kuching International Airport

Retrieved 2021/12/06 02:00 UTC (29 minutes ago):

WBGG 060200Z VRB02KT 9999 -RA SCT020 26/24 Q1012 NOSIG

Aviation forecast (TAF) for Kuching International Airport

Retrieved 2021-12-06 00:12 UTC (2 hours ago):

TAF WBGG 052300Z 0600/0700 35005KT 5000 RA FEW005 SCT020